Time;durP1;ratioP1;P1;durP2;ratioP2;P2;SDS_P1;SDS_P2;PMS_P1;PMS_P2;Temp;Humidity;BMP_temperature;BMP_pressure;BME280_temperature;BME280_humidity;BME280_pressure;Samples;Min_cycle;Max_cycle;Signal;HPM_P1;HPM_P2
2021/12/22 05:16:05;;;;;;;19.42;12.10;;;;;;;15.17;45.05;99864.33;1940016;72;28140;-63
2021/12/22 05:18:58;;;;;;;22.48;12.58;;;;;;;14.30;39.53;99873.95;1902207;75;28106;-63
2021/12/22 05:21:45;;;;;;;19.90;11.90;;;;;;;13.86;36.83;99873.46;1903810;73;28152;-61
2021/12/22 05:24:34;;;;;;;12.63;8.78;;;;;;;13.93;36.10;99874.47;1910437;73;28191;-62
2021/12/22 05:27:22;;;;;;;13.43;8.25;;;;;;;14.77;37.87;99872.65;1902182;75;28145;-61
2021/12/22 05:30:13;;;;;;;12.13;7.90;;;;;;;15.47;38.13;99867.59;1913576;73;28050;-64
2021/12/22 05:33:02;;;;;;;10.93;7.35;;;;;;;16.03;38.12;99864.95;1905752;73;28237;-63
2021/12/22 05:35:50;;;;;;;10.40;6.53;;;;;;;16.50;38.12;99865.98;1902049;75;28091;-62
2021/12/22 05:38:39;;;;;;;7.90;6.00;;;;;;;16.89;38.00;99863.05;1906899;73;28136;-64
2021/12/22 05:41:27;;;;;;;9.20;6.35;;;;;;;17.25;37.85;99867.98;1902190;75;28038;-66
2021/12/22 05:44:16;;;;;;;8.48;5.83;;;;;;;17.53;37.81;99862.18;1912921;73;28845;-66
2021/12/22 05:47:05;;;;;;;8.58;5.65;;;;;;;17.78;37.71;99859.95;1912456;73;28177;-63
2021/12/22 05:49:54;;;;;;;6.25;5.30;;;;;;;17.98;37.58;99860.11;1931717;73;28037;-64
2021/12/22 05:52:42;;;;;;;8.43;5.33;;;;;;;18.15;37.45;99861.02;1913332;73;28015;-64
2021/12/22 05:55:31;;;;;;;6.37;5.10;;;;;;;18.30;37.33;99858.17;1905949;73;28178;-64
2021/12/22 05:58:20;;;;;;;5.93;4.93;;;;;;;18.40;37.29;99858.17;1913087;73;28149;-66
2021/12/22 06:01:08;;;;;;;6.92;5.17;;;;;;;18.51;37.22;99856.80;1915768;73;28078;-66
2021/12/22 06:03:59;;;;;;;7.00;5.03;;;;;;;18.59;37.11;99864.30;1906361;73;28150;-65
2021/12/22 06:06:48;;;;;;;7.65;5.10;;;;;;;18.65;37.09;99861.28;1916393;73;28228;-65
2021/12/22 06:09:38;;;;;;;5.80;5.05;;;;;;;18.72;37.03;99857.27;1901447;75;28064;-65
2021/12/22 06:12:28;;;;;;;6.30;4.87;;;;;;;18.83;36.95;99862.98;1901583;75;28144;-64
2021/12/22 06:15:37;;;;;;;5.85;5.20;;;;;;;18.85;36.91;99862.26;1915714;73;28060;-64
2021/12/22 06:18:26;;;;;;;5.72;5.05;;;;;;;18.93;36.91;99865.31;1904139;73;28107;-64
2021/12/22 06:21:15;;;;;;;5.62;4.90;;;;;;;18.95;36.82;99865.43;1902224;73;28147;-65
2021/12/22 06:24:05;;;;;;;5.77;4.23;;;;;;;19.00;36.86;99867.03;1921736;73;28021;-65
2021/12/22 06:26:53;;;;;;;5.12;4.62;;;;;;;19.05;36.78;99868.63;1914902;73;28020;-65
2021/12/22 06:29:43;;;;;;;6.27;4.73;;;;;;;19.06;36.79;99870.33;1912575;73;28159;-65
2021/12/22 06:32:31;;;;;;;5.20;4.70;;;;;;;19.13;36.74;99868.98;1910739;73;28224;-64
2021/12/22 06:35:20;;;;;;;5.95;4.70;;;;;;;19.17;36.71;99871.09;1901346;75;28093;-64
2021/12/22 06:38:10;;;;;;;5.72;4.40;;;;;;;19.19;36.70;99870.88;1865114;76;28123;-64
2021/12/22 06:40:59;;;;;;;6.28;4.60;;;;;;;19.24;36.75;99876.57;1917021;74;28052;-63
2021/12/22 06:43:48;;;;;;;5.58;4.62;;;;;;;19.24;36.72;99876.57;1908704;73;28137;-63
2021/12/22 06:46:35;;;;;;;4.87;4.37;;;;;;;19.27;36.73;99876.17;1913978;73;28163;-62
2021/12/22 06:49:25;;;;;;;5.17;4.67;;;;;;;19.30;36.69;99884.76;1901621;75;28155;-62
2021/12/22 06:52:14;;;;;;;5.70;4.70;;;;;;;19.34;36.73;99885.20;1901607;75;28072;-63
2021/12/22 06:55:03;;;;;;;5.65;4.45;;;;;;;19.35;36.67;99889.59;1922105;73;29962;-63
2021/12/22 06:57:54;;;;;;;5.17;4.35;;;;;;;19.35;36.69;99886.05;1906040;73;28018;-63
2021/12/22 07:00:43;;;;;;;5.97;4.58;;;;;;;19.38;36.69;99893.83;1901265;75;28172;-62
2021/12/22 07:03:32;;;;;;;4.85;4.40;;;;;;;19.39;36.69;99905.05;1901432;75;28138;-62
2021/12/22 07:06:20;;;;;;;4.42;4.00;;;;;;;19.45;36.68;99901.50;1901431;75;28190;-63
2021/12/22 07:09:10;;;;;;;4.70;4.30;;;;;;;19.45;36.61;99904.23;1868930;75;28148;-63
2021/12/22 07:11:58;;;;;;;4.72;4.22;;;;;;;19.41;36.72;99903.81;1904580;73;28137;-64
2021/12/22 07:14:47;;;;;;;5.00;4.50;;;;;;;19.43;36.71;99906.32;1904843;73;28435;-64
2021/12/22 07:17:37;;;;;;;9.28;4.42;;;;;;;19.46;36.72;99908.65;1902539;73;28145;-64
2021/12/22 07:20:25;;;;;;;6.72;4.30;;;;;;;19.48;36.85;99913.36;1901328;75;28204;-64
2021/12/22 07:23:14;;;;;;;8.63;4.30;;;;;;;19.51;36.81;99914.33;1902535;73;28403;-63
2021/12/22 07:26:03;;;;;;;5.22;4.55;;;;;;;19.51;36.88;99916.50;1916447;73;28096;-64
2021/12/22 07:28:51;;;;;;;7.10;4.33;;;;;;;19.51;36.90;99921.14;1915165;73;28004;-64
2021/12/22 07:31:40;;;;;;;6.42;4.55;;;;;;;19.51;36.88;99924.68;1913072;73;28224;-64
2021/12/22 07:34:36;;;;;;;5.55;4.20;;;;;;;19.56;36.93;99924.06;1918920;73;28077;-62
2021/12/22 07:37:34;;;;;;;4.62;4.05;;;;;;;19.56;36.91;99922.70;1920203;73;36269;-63
2021/12/22 07:40:23;;;;;;;6.58;4.45;;;;;;;19.57;36.92;99927.13;1877881;75;28010;-63
2021/12/22 07:43:11;;;;;;;5.42;4.37;;;;;;;19.55;36.97;99925.13;1901694;75;28030;-65
2021/12/22 07:46:02;;;;;;;5.50;4.20;;;;;;;19.55;37.09;99932.79;1921216;73;28068;-64
2021/12/22 07:48:52;;;;;;;6.40;4.47;;;;;;;19.64;37.17;99932.92;1901436;75;28098;-62
2021/12/22 07:51:42;;;;;;;6.15;4.15;;;;;;;19.65;37.25;99937.86;1901382;73;28219;-63
2021/12/22 07:54:31;;;;;;;4.72;4.22;;;;;;;19.67;37.32;99935.25;1903449;73;28073;-64
2021/12/22 07:57:21;;;;;;;7.50;4.40;;;;;;;19.64;37.48;99934.28;1865083;76;28130;-63
2021/12/22 08:00:11;;;;;;;5.55;4.28;;;;;;;19.66;37.56;99934.91;1905009;73;28266;-63
2021/12/22 08:03:22;;;;;;;6.40;4.47;;;;;;;19.66;37.63;99938.16;1923998;73;28052;-63
2021/12/22 08:06:12;;;;;;;4.92;4.12;;;;;;;19.63;37.76;99938.04;1901347;75;28145;-63
2021/12/22 08:09:00;;;;;;;5.65;4.45;;;;;;;19.60;37.90;99943.92;1864893;76;28238;-64
2021/12/22 08:11:48;;;;;;;5.08;4.08;;;;;;;19.59;37.96;99940.86;1901313;75;28153;-63
2021/12/22 08:14:39;;;;;;;5.12;4.15;;;;;;;19.64;37.97;99944.34;1901348;75;28086;-63
2021/12/22 08:17:28;;;;;;;5.37;4.17;;;;;;;19.60;38.04;99948.01;1914543;73;28248;-63
2021/12/22 08:20:17;;;;;;;5.72;4.42;;;;;;;19.60;38.15;99949.89;1922437;73;28029;-63
2021/12/22 08:23:05;;;;;;;4.75;4.00;;;;;;;19.61;38.13;99952.91;1917113;73;38597;-63
2021/12/22 08:25:54;;;;;;;4.50;4.00;;;;;;;19.61;38.17;99953.76;1911010;74;28183;-63
2021/12/22 08:28:46;;;;;;;5.67;4.20;;;;;;;19.64;38.14;99960.17;1916159;73;28068;-62
2021/12/22 08:31:33;;;;;;;5.55;4.40;;;;;;;19.61;38.15;99956.48;1933508;73;28209;-63
2021/12/22 08:34:34;;;;;;;4.87;4.37;;;;;;;19.60;38.19;99956.70;1911333;73;28201;-64
2021/12/22 08:40:16;;;;;;;5.65;4.40;;;;;;;19.62;38.15;99958.69;1794406;74;28475;-64
2021/12/22 08:43:04;;;;;;;4.95;4.30;;;;;;;19.61;38.16;99957.00;1911253;74;28146;-64
2021/12/22 08:45:53;;;;;;;4.80;4.25;;;;;;;19.59;38.20;99951.77;1916098;73;28061;-63
2021/12/22 08:48:41;;;;;;;5.53;4.30;;;;;;;19.57;38.21;99953.01;1879630;75;28311;-63
2021/12/22 08:51:30;;;;;;;5.33;4.30;;;;;;;19.58;38.16;99954.16;1872100;76;28198;-63
2021/12/22 08:54:20;;;;;;;6.22;4.28;;;;;;;19.60;38.14;99949.89;1845334;76;28206;-63
2021/12/22 08:57:08;;;;;;;4.70;4.05;;;;;;;19.60;38.14;99945.80;1847067;76;28239;-64
2021/12/22 08:59:57;;;;;;;4.53;4.13;;;;;;;19.59;38.15;99944.95;1868106;76;28165;-63
2021/12/22 09:02:46;;;;;;;4.75;4.35;;;;;;;19.57;38.13;99938.02;1874348;76;28169;-65
2021/12/22 09:05:34;;;;;;;6.10;4.50;;;;;;;19.57;38.15;99944.32;1865011;76;28253;-65
2021/12/22 09:08:22;;;;;;;5.47;4.20;;;;;;;19.61;38.09;99943.38;1890940;75;28183;-65
2021/12/22 09:11:12;;;;;;;5.20;4.60;;;;;;;19.62;38.03;99948.64;1861578;76;28213;-63
2021/12/22 09:14:03;;;;;;;6.30;4.62;;;;;;;19.60;38.03;99953.45;1862097;75;28298;-63
2021/12/22 09:16:51;;;;;;;5.40;4.45;;;;;;;19.57;38.09;99949.77;1851271;76;28304;-64
2021/12/22 09:19:39;;;;;;;5.87;4.47;;;;;;;19.59;38.01;99946.83;1843649;76;28192;-64
2021/12/22 09:22:28;;;;;;;4.45;4.05;;;;;;;19.60;37.99;99946.64;1920506;73;28067;-64
2021/12/22 09:25:17;;;;;;;4.87;4.37;;;;;;;19.57;38.00;99943.47;1915167;73;28182;-64
2021/12/22 09:28:06;;;;;;;6.42;4.47;;;;;;;19.59;37.97;99946.83;1924188;73;28229;-63
2021/12/22 09:30:55;;;;;;;4.90;4.37;;;;;;;19.57;37.95;99941.59;1894038;73;28124;-63
2021/12/22 09:33:43;;;;;;;5.05;4.40;;;;;;;19.63;37.91;99950.81;1901185;75;28195;-64
2021/12/22 09:36:33;;;;;;;4.55;4.15;;;;;;;19.62;37.83;99947.80;1901523;75;28086;-64
2021/12/22 09:39:21;;;;;;;5.42;4.50;;;;;;;19.59;37.89;99942.74;1920972;73;28041;-64
2021/12/22 09:42:11;;;;;;;5.62;4.50;;;;;;;19.60;37.83;99943.08;1901300;75;28053;-64
2021/12/22 09:45:02;;;;;;;5.70;4.40;;;;;;;19.60;37.85;99948.52;1918149;73;28142;-64
2021/12/22 09:48:49;;;;;;;5.22;4.65;;;;;;;19.60;37.88;99942.56;1924319;73;28130;-63
2021/12/22 09:53:54;;;;;;;5.25;4.67;;;;;;;19.60;37.78;99945.80;1866648;75;28214;-63
2021/12/22 09:56:44;;;;;;;7.78;4.70;;;;;;;19.59;37.79;99943.59;1924711;73;28009;-63
2021/12/22 09:59:53;;;;;;;4.95;4.45;;;;;;;19.61;37.78;99951.55;1915526;73;28159;-64
2021/12/22 10:02:42;;;;;;;6.47;4.78;;;;;;;19.62;37.76;99947.80;1901610;75;28150;-63
2021/12/22 10:05:30;;;;;;;5.30;4.77;;;;;;;19.59;37.82;99948.19;1872588;75;28119;-63
2021/12/22 10:08:25;;;;;;;6.37;5.10;;;;;;;19.58;37.75;99951.98;1912634;73;28117;-63
2021/12/22 10:11:15;;;;;;;6.90;4.65;;;;;;;19.60;37.76;99945.80;1922624;73;28064;-63
2021/12/22 10:14:06;;;;;;;5.25;4.75;;;;;;;19.59;37.75;99947.67;1901492;75;28126;-63
2021/12/22 10:16:56;;;;;;;5.85;4.92;;;;;;;19.58;37.67;99941.08;1901536;75;28091;-63
2021/12/22 10:19:53;;;;;;;6.00;4.93;;;;;;;19.58;37.70;99943.80;1922483;73;28135;-63
2021/12/22 10:22:42;;;;;;;6.20;5.08;;;;;;;19.60;37.72;99940.34;1864975;76;28303;-64
2021/12/22 10:25:33;;;;;;;5.28;4.78;;;;;;;19.56;37.74;99937.17;1918066;73;28283;-64
2021/12/22 10:28:23;;;;;;;5.72;4.80;;;;;;;19.57;37.68;99938.02;1906027;73;28060;-63
2021/12/22 10:31:13;;;;;;;5.90;5.00;;;;;;;19.58;37.65;99936.45;1911949;73;28198;-64
2021/12/22 10:34:07;;;;;;;5.37;4.87;;;;;;;19.59;37.64;99933.20;1909968;73;28128;-63
2021/12/22 10:36:56;;;;;;;5.55;5.00;;;;;;;19.61;37.63;99928.39;1901351;75;28119;-63
2021/12/22 10:39:44;;;;;;;5.53;4.95;;;;;;;19.60;37.65;99919.91;1864713;76;28095;-64
2021/12/22 10:42:42;;;;;;;5.35;4.75;;;;;;;19.58;37.65;99917.37;1904420;74;28098;-63
2021/12/22 10:45:37;;;;;;;6.28;4.92;;;;;;;19.60;37.63;99922.64;1892178;75;28144;-61
2021/12/22 10:51:37;;;;;;;5.60;5.10;;;;;;;19.59;37.66;99907.31;1901182;75;28091;-61
2021/12/22 10:54:35;;;;;;;7.97;5.30;;;;;;;19.54;37.69;99909.30;1877204;75;28155;-61
2021/12/22 10:57:24;;;;;;;6.15;5.37;;;;;;;19.58;37.65;99908.38;1912737;73;28076;-61
2021/12/22 11:00:19;;;;;;;5.53;5.00;;;;;;;19.58;37.69;99902.93;1931854;73;28098;-62
2021/12/22 11:03:10;;;;;;;6.05;5.12;;;;;;;19.59;37.66;99893.17;1922882;73;28046;-61
2021/12/22 11:06:01;;;;;;;6.28;5.12;;;;;;;19.58;37.60;99890.12;1901494;75;28076;-61
2021/12/22 11:09:10;;;;;;;5.62;5.12;;;;;;;19.60;37.56;99882.61;1865267;76;32021;-63
2021/12/22 11:12:00;;;;;;;5.55;5.03;;;;;;;19.60;37.54;99872.22;1912884;74;28138;-61
2021/12/22 11:14:48;;;;;;;6.95;5.53;;;;;;;19.59;37.58;99874.62;1914832;73;28101;-61
2021/12/22 11:17:39;;;;;;;6.33;5.33;;;;;;;19.61;37.51;99872.00;1865095;76;28223;-61
2021/12/22 11:20:28;;;;;;;6.12;5.40;;;;;;;19.60;37.56;99868.14;1910457;73;28041;-61
2021/12/22 11:23:16;;;;;;;7.15;5.45;;;;;;;19.59;37.55;99875.98;1900603;74;28030;-62
2021/12/22 11:26:05;;;;;;;5.90;5.22;;;;;;;19.59;37.53;99874.62;1882088;75;28126;-62
2021/12/22 11:28:55;;;;;;;5.97;5.20;;;;;;;19.60;37.51;99867.62;1884199;75;28165;-61
2021/12/22 11:31:44;;;;;;;5.78;5.10;;;;;;;19.60;37.52;99863.53;1878924;75;28133;-62
2021/12/22 11:34:36;;;;;;;6.10;4.90;;;;;;;19.61;37.46;99866.55;1876708;75;28206;-61
2021/12/22 11:37:26;;;;;;;5.95;5.35;;;;;;;19.60;37.51;99869.50;1893423;73;38985;-61
2021/12/22 11:40:22;;;;;;;6.55;5.08;;;;;;;19.59;37.47;99859.12;1938783;73;28151;-61
2021/12/22 11:43:06;;;;;;;5.75;5.25;;;;;;;19.60;37.44;99856.72;1879042;75;28131;-61
2021/12/22 11:45:56;;;;;;;5.72;5.12;;;;;;;19.62;37.42;99853.78;1913924;74;28118;-62
2021/12/22 11:48:49;;;;;;;5.40;4.90;;;;;;;19.62;37.42;99854.63;1901953;74;28331;-62
2021/12/22 11:51:38;;;;;;;7.87;5.47;;;;;;;19.58;37.43;99850.61;1896142;73;28145;-61
2021/12/22 11:54:28;;;;;;;5.67;4.97;;;;;;;19.59;37.45;99844.64;1907753;73;28094;-62
2021/12/22 11:57:19;;;;;;;6.00;5.40;;;;;;;19.58;37.45;99845.16;1892164;73;28089;-61
2021/12/22 12:00:30;;;;;;;6.45;5.05;;;;;;;19.57;37.46;99839.92;1922863;73;28516;-61
2021/12/22 12:03:24;;;;;;;5.80;4.80;;;;;;;19.55;37.51;99846.95;1877983;73;28260;-61
2021/12/22 12:06:18;;;;;;;5.85;4.92;;;;;;;19.52;37.55;99838.34;1909535;73;28449;-61
2021/12/22 12:09:13;;;;;;;5.72;5.20;;;;;;;19.56;37.48;99830.06;1880287;75;28196;-61
2021/12/22 12:12:05;;;;;;;5.83;5.25;;;;;;;19.56;37.55;99828.70;1910010;73;28126;-63
2021/12/22 12:24:20;;;;;;;5.53;5.03;;;;;;;19.56;37.46;99817.28;1878359;75;28189;-61
2021/12/22 12:27:37;;;;;;;5.70;5.20;;;;;;;19.54;37.46;99807.12;1872759;75;28190;-61
2021/12/22 12:30:50;;;;;;;6.20;5.20;;;;;;;19.52;37.45;99806.49;1857179;77;28212;-63
2021/12/22 12:33:46;;;;;;;5.40;4.90;;;;;;;19.52;37.51;99802.92;1886729;75;28153;-61
2021/12/22 12:36:36;;;;;;;5.45;4.95;;;;;;;19.50;37.53;99799.05;1879964;75;28177;-62
2021/12/22 12:39:44;;;;;;;5.50;5.00;;;;;;;19.51;37.52;99789.81;1867845;75;28139;-61
2021/12/22 12:42:52;;;;;;;5.30;4.80;;;;;;;19.54;37.47;99784.48;1809105;78;28258;-62
2021/12/22 12:45:49;;;;;;;5.45;4.87;;;;;;;19.53;37.47;99786.39;1841761;77;28480;-61
2021/12/22 12:48:38;;;;;;;5.65;5.08;;;;;;;19.49;37.47;99775.56;1783697;78;28407;-63
2021/12/22 12:51:49;;;;;;;5.33;4.90;;;;;;;19.52;37.48;99774.31;1853259;77;28278;-61
2021/12/22 12:54:40;;;;;;;5.92;4.90;;;;;;;19.53;37.50;99762.38;1813149;78;28285;-62
2021/12/22 12:57:30;;;;;;;5.28;4.78;;;;;;;19.55;37.44;99771.19;1810937;78;28403;-61
2021/12/22 13:00:21;;;;;;;5.53;4.70;;;;;;;19.52;37.41;99762.05;1867676;75;28550;-62
2021/12/22 13:03:10;;;;;;;5.83;5.13;;;;;;;19.53;37.41;99763.75;1889535;75;28278;-62
2021/12/22 13:05:58;;;;;;;5.40;4.83;;;;;;;19.55;37.38;99772.55;1901838;75;28161;-62
2021/12/22 13:08:47;;;;;;;5.50;4.62;;;;;;;19.56;37.40;99760.58;1879790;75;28133;-61
2021/12/22 13:11:37;;;;;;;5.60;4.92;;;;;;;19.55;37.38;99765.73;1880104;75;28166;-61
2021/12/22 13:17:40;;;;;;;5.73;5.10;;;;;;;19.53;37.40;99771.41;1888051;75;28164;-62
2021/12/22 13:20:32;;;;;;;5.58;4.92;;;;;;;19.50;37.43;99768.23;1863696;75;28143;-61
2021/12/22 13:23:23;;;;;;;5.13;4.60;;;;;;;19.50;37.46;99760.06;1898113;75;28158;-61
2021/12/22 13:26:12;;;;;;;5.35;4.85;;;;;;;19.52;37.44;99757.97;1901616;75;28125;-61
2021/12/22 13:29:00;;;;;;;5.08;4.65;;;;;;;19.53;37.42;99759.14;1882240;75;28167;-61
2021/12/22 13:31:48;;;;;;;4.95;4.47;;;;;;;19.52;37.38;99766.98;1869315;76;28181;-61
2021/12/22 13:34:45;;;;;;;6.90;4.87;;;;;;;19.53;37.34;99767.31;1890772;75;28158;-61
2021/12/22 13:37:37;;;;;;;5.00;4.60;;;;;;;19.53;37.35;99767.31;1894672;75;28159;-61
2021/12/22 13:40:44;;;;;;;5.10;4.60;;;;;;;19.51;37.37;99759.03;1901580;75;28239;-61
2021/12/22 13:43:44;;;;;;;5.10;4.60;;;;;;;19.51;37.40;99759.03;1887946;75;28195;-61
2021/12/22 13:46:35;;;;;;;5.83;4.62;;;;;;;19.50;37.37;99762.27;1901705;75;28158;-61
2021/12/22 13:49:24;;;;;;;4.67;4.33;;;;;;;19.48;37.40;99758.08;1901625;75;28140;-61
2021/12/22 13:52:13;;;;;;;5.55;4.37;;;;;;;19.50;37.41;99759.55;1883534;75;28135;-61
2021/12/22 13:55:01;;;;;;;4.90;4.50;;;;;;;19.51;37.39;99751.67;1901701;75;28083;-61
2021/12/22 13:57:50;;;;;;;4.95;4.50;;;;;;;19.52;37.37;99748.43;1869445;76;28234;-61
2021/12/22 14:00:38;;;;;;;5.05;4.58;;;;;;;19.50;37.37;99745.08;1904181;74;28206;-61
2021/12/22 14:03:30;;;;;;;4.78;4.42;;;;;;;19.50;37.36;99752.73;1901667;75;28424;-61
2021/12/22 14:06:20;;;;;;;4.70;4.30;;;;;;;19.50;37.33;99753.25;1882705;75;28169;-61
2021/12/22 14:09:13;;;;;;;4.70;4.30;;;;;;;19.51;37.37;99753.58;1869607;76;28184;-61
2021/12/22 14:12:11;;;;;;;4.62;4.22;;;;;;;19.46;37.36;99753.36;1878321;75;28124;-61
2021/12/22 14:15:00;;;;;;;4.60;4.20;;;;;;;19.45;37.39;99748.95;1896636;75;28188;-61
2021/12/22 14:17:49;;;;;;;4.72;4.20;;;;;;;19.44;37.44;99749.46;1869348;76;28466;-63
2021/12/22 14:20:39;;;;;;;4.90;4.23;;;;;;;19.47;37.41;99744.97;1885171;75;28155;-61
2021/12/22 14:23:29;;;;;;;4.37;4.00;;;;;;;19.48;37.38;99740.37;1901697;74;28168;-61
2021/12/22 14:26:17;;;;;;;4.83;4.33;;;;;;;19.47;37.40;99742.25;1901877;75;28199;-61
2021/12/22 14:29:09;;;;;;;4.50;4.10;;;;;;;19.47;37.35;99734.59;1901729;75;28134;-60
2021/12/22 14:32:03;;;;;;;4.35;3.95;;;;;;;19.48;37.36;99730.31;1883308;75;28235;-61
2021/12/22 14:35:03;;;;;;;4.65;4.20;;;;;;;19.48;37.32;99733.04;1880099;75;32136;-61
2021/12/22 14:38:03;;;;;;;4.42;4.03;;;;;;;19.46;37.37;99732.41;1894098;75;28071;-61
2021/12/22 14:40:57;;;;;;;4.70;4.30;;;;;;;19.48;37.33;99737.13;1895376;75;28071;-61
2021/12/22 14:43:49;;;;;;;4.40;4.00;;;;;;;19.47;37.32;99735.95;1901709;75;28078;-61
2021/12/22 14:46:38;;;;;;;4.30;3.90;;;;;;;19.46;37.37;99739.22;1895637;75;28063;-63
2021/12/22 14:49:28;;;;;;;4.30;3.98;;;;;;;19.48;37.33;99732.20;1879546;75;28155;-61
2021/12/22 14:52:19;;;;;;;4.60;4.20;;;;;;;19.47;37.32;99730.50;1901655;75;28118;-61
2021/12/22 14:55:08;;;;;;;4.15;3.85;;;;;;;19.45;37.36;99730.72;1880459;75;28218;-61
2021/12/22 14:57:56;;;;;;;4.40;4.10;;;;;;;19.44;37.36;99733.12;1892439;75;28157;-61
2021/12/22 15:00:47;;;;;;;4.40;4.00;;;;;;;19.45;37.39;99736.69;1880144;75;28130;-61
2021/12/22 15:03:37;;;;;;;4.10;3.80;;;;;;;19.43;37.34;99739.63;1896847;75;28098;-61
2021/12/22 15:06:28;;;;;;;4.60;4.20;;;;;;;19.43;37.36;99735.55;1869453;76;28184;-61
2021/12/22 15:09:16;;;;;;;4.40;4.00;;;;;;;19.45;37.34;99733.96;1869329;76;28066;-61
2021/12/22 15:12:05;;;;;;;4.25;3.95;;;;;;;19.44;37.31;99730.94;1900339;75;28402;-61
2021/12/22 15:14:54;;;;;;;4.13;3.80;;;;;;;19.42;37.32;99731.12;1880125;75;28189;-61
2021/12/22 15:17:42;;;;;;;4.20;3.80;;;;;;;19.42;37.39;99734.40;1882538;75;28190;-62
2021/12/22 15:20:30;;;;;;;4.20;3.80;;;;;;;19.54;37.29;99734.07;1869106;76;28231;-60
2021/12/22 15:23:19;;;;;;;4.12;3.83;;;;;;;19.68;37.11;99731.67;1898193;75;28249;-61
2021/12/22 15:26:08;;;;;;;4.03;3.72;;;;;;;19.78;36.95;99730.21;1888866;75;28134;-61
2021/12/22 15:28:59;;;;;;;3.92;3.60;;;;;;;19.89;36.85;99736.90;1886210;75;28150;-61
2021/12/22 15:31:48;;;;;;;4.00;3.60;;;;;;;19.96;36.70;99735.01;1856968;77;28294;-60
2021/12/22 15:34:37;;;;;;;4.10;3.75;;;;;;;20.05;36.58;99726.91;1854715;75;28199;-61
2021/12/22 15:37:25;;;;;;;4.10;3.70;;;;;;;20.12;36.45;99729.11;1901526;75;28155;-61
2021/12/22 15:40:16;;;;;;;3.95;3.65;;;;;;;20.17;36.32;99736.13;1884264;75;28209;-61
2021/12/22 15:43:05;;;;;;;3.83;3.55;;;;;;;20.22;36.22;99724.61;1869269;76;28195;-61
2021/12/22 15:45:54;;;;;;;3.80;3.33;;;;;;;20.25;36.12;99730.49;1869361;76;28705;-61
2021/12/22 15:48:43;;;;;;;3.60;3.30;;;;;;;20.30;36.05;99729.33;1891132;75;28247;-61
2021/12/22 15:51:32;;;;;;;3.75;3.45;;;;;;;20.32;36.00;99731.31;1873247;75;28131;-61
2021/12/22 15:54:20;;;;;;;3.63;3.30;;;;;;;20.39;35.83;99737.59;1868192;75;28275;-62
2021/12/22 15:57:09;;;;;;;3.70;3.40;;;;;;;20.41;35.80;99739.58;1867729;75;28283;-61
2021/12/22 15:59:58;;;;;;;3.50;3.20;;;;;;;20.38;35.82;99740.00;1869924;75;28170;-61
2021/12/22 16:02:47;;;;;;;3.30;3.10;;;;;;;20.38;35.77;99747.34;1868933;76;28226;-61
2021/12/22 16:05:36;;;;;;;7.25;3.80;;;;;;;20.40;35.86;99748.80;1891120;75;28177;-61
2021/12/22 16:08:26;;;;;;;3.70;3.40;;;;;;;20.42;35.81;99750.78;1893192;75;28154;-62
2021/12/22 16:11:15;;;;;;;3.87;3.47;;;;;;;20.42;35.74;99752.15;1867220;75;28220;-61
2021/12/22 16:14:04;;;;;;;3.83;3.50;;;;;;;20.46;35.68;99756.67;1877073;74;28195;-62
2021/12/22 16:16:53;;;;;;;3.70;3.30;;;;;;;20.44;35.66;99755.50;1906722;74;28125;-61
2021/12/22 16:19:42;;;;;;;3.50;3.30;;;;;;;20.50;35.61;99755.18;1879688;75;28227;-61
2021/12/22 16:22:31;;;;;;;3.60;3.40;;;;;;;20.49;35.59;99755.70;1883928;75;28196;-61
2021/12/22 16:25:20;;;;;;;3.40;3.10;;;;;;;20.47;35.60;99752.34;1869260;75;28237;-62
2021/12/22 16:28:08;;;;;;;3.75;3.40;;;;;;;20.50;35.64;99758.75;1895471;75;28252;-61
2021/12/22 16:30:57;;;;;;;3.52;3.22;;;;;;;20.52;35.54;99762.10;1878761;75;28220;-61
2021/12/22 16:33:45;;;;;;;3.60;3.30;;;;;;;20.52;35.51;99767.56;1874333;75;28129;-61
2021/12/22 16:36:34;;;;;;;3.37;3.17;;;;;;;20.51;35.52;99766.42;1868878;76;28204;-61
2021/12/22 16:39:22;;;;;;;3.50;3.20;;;;;;;20.51;35.45;99764.50;1896354;75;28167;-61
2021/12/22 16:42:11;;;;;;;3.27;3.05;;;;;;;20.51;35.53;99759.59;1889444;75;28121;-61
2021/12/22 16:44:59;;;;;;;3.47;3.17;;;;;;;20.53;35.45;99765.16;1889627;75;28217;-62
2021/12/22 16:47:53;;;;;;;3.65;3.30;;;;;;;20.56;35.44;99770.16;1877351;75;28308;-61
2021/12/22 16:50:38;;;;;;;3.00;2.80;;;;;;;20.56;35.40;99767.98;1877267;75;28327;-62
2021/12/22 16:53:27;;;;;;;3.37;3.17;;;;;;;20.59;35.39;99765.65;1877984;75;28125;-61
2021/12/22 16:56:18;;;;;;;3.42;3.12;;;;;;;20.58;35.35;99759.86;1874337;75;28260;-60
2021/12/22 16:59:09;;;;;;;3.40;3.20;;;;;;;20.60;35.37;99762.40;1888484;75;28210;-60
2021/12/22 17:01:57;;;;;;;3.33;3.10;;;;;;;20.60;35.32;99763.77;1897390;75;28113;-61
2021/12/22 17:04:45;;;;;;;3.30;3.00;;;;;;;20.63;35.24;99766.89;1889432;75;28196;-61
2021/12/22 17:07:34;;;;;;;3.12;2.92;;;;;;;20.62;35.27;99763.02;1879608;74;28152;-60
2021/12/22 17:10:23;;;;;;;3.22;2.98;;;;;;;20.64;35.22;99765.00;1877376;74;28308;-61
2021/12/22 17:13:14;;;;;;;3.20;3.00;;;;;;;20.70;35.21;99767.41;1886689;75;28160;-61
2021/12/22 17:16:02;;;;;;;3.12;2.92;;;;;;;20.73;35.16;99777.88;1876083;75;28278;-60
2021/12/22 17:18:51;;;;;;;3.08;2.87;;;;;;;20.69;35.12;99774.75;1867842;75;28207;-61
2021/12/22 17:21:40;;;;;;;3.10;2.90;;;;;;;20.71;35.13;99784.08;1882915;75;28138;-62
2021/12/22 17:24:29;;;;;;;3.52;3.22;;;;;;;20.73;35.10;99788.27;1892796;75;28159;-61
2021/12/22 17:27:17;;;;;;;3.00;2.80;;;;;;;20.76;35.00;99793.83;1879167;75;28325;-63
2021/12/22 17:30:09;;;;;;;3.00;2.80;;;;;;;20.77;34.99;99798.25;1883699;74;28191;-61
2021/12/22 17:32:59;;;;;;;3.30;3.00;;;;;;;20.76;35.02;99799.30;1902572;74;28110;-61
2021/12/22 17:35:48;;;;;;;2.90;2.70;;;;;;;20.79;34.98;99803.81;1879887;75;28170;-61
2021/12/22 17:38:37;;;;;;;3.17;2.98;;;;;;;20.78;34.95;99798.03;1884279;75;28321;-63
2021/12/22 17:41:26;;;;;;;3.20;2.90;;;;;;;20.84;34.90;99803.98;1881211;75;28120;-63
2021/12/22 17:44:16;;;;;;;3.25;3.05;;;;;;;20.83;34.80;99807.78;1879963;75;28261;-61
2021/12/22 17:47:05;;;;;;;3.10;2.90;;;;;;;20.85;34.86;99808.40;1901457;75;28189;-62
2021/12/22 17:49:53;;;;;;;2.90;2.70;;;;;;;20.86;34.79;99807.88;1901626;75;28208;-61
2021/12/22 17:52:42;;;;;;;2.85;2.65;;;;;;;20.90;34.79;99810.48;1869449;76;28188;-61
2021/12/22 17:55:34;;;;;;;3.05;2.85;;;;;;;20.92;34.69;99805.64;1896042;75;28148;-61
2021/12/22 17:58:22;;;;;;;3.23;3.00;;;;;;;20.92;34.63;99799.66;1901721;75;28156;-61
2021/12/22 18:01:11;;;;;;;3.25;2.95;;;;;;;20.89;34.60;99798.71;1885761;75;28161;-61
2021/12/22 18:04:01;;;;;;;3.30;3.00;;;;;;;20.90;34.64;99797.67;1901143;75;28240;-61
2021/12/22 18:06:50;;;;;;;3.00;2.80;;;;;;;20.92;34.60;99798.29;1875649;75;28226;-62
2021/12/22 18:09:39;;;;;;;3.27;2.98;;;;;;;20.98;34.57;99803.42;1880330;75;28108;-62
2021/12/22 18:12:28;;;;;;;3.20;2.90;;;;;;;20.98;34.54;99807.52;1884803;75;28209;-61
2021/12/22 18:15:18;;;;;;;3.20;2.90;;;;;;;21.01;34.40;99813.89;1888821;75;28237;-62
2021/12/22 18:18:07;;;;;;;3.47;3.10;;;;;;;20.99;34.42;99817.37;1894104;75;28701;-62
2021/12/22 18:20:58;;;;;;;3.10;2.90;;;;;;;21.01;34.41;99813.89;1901619;75;28115;-61
2021/12/22 18:23:50;;;;;;;2.80;2.60;;;;;;;21.02;34.37;99819.68;1868546;76;28116;-61
2021/12/22 18:26:39;;;;;;;3.27;2.97;;;;;;;21.00;34.36;99819.06;1900917;75;28610;-61
2021/12/22 18:29:27;;;;;;;2.90;2.70;;;;;;;21.00;34.40;99817.17;1873480;75;28435;-60
2021/12/22 18:32:16;;;;;;;3.10;2.80;;;;;;;21.01;34.42;99822.09;1901886;75;28116;-60
2021/12/22 18:35:09;;;;;;;3.45;3.15;;;;;;;21.03;34.24;99822.70;1882477;75;28215;-61
2021/12/22 18:38:03;;;;;;;3.08;2.87;;;;;;;21.04;34.13;99827.13;1875565;75;28171;-62
2021/12/22 18:40:59;;;;;;;3.95;3.65;;;;;;;21.01;34.13;99823.45;1899301;75;28309;-60
2021/12/22 18:43:43;;;;;;;3.50;3.20;;;;;;;20.91;34.08;99820.36;1896083;75;28132;-61
2021/12/22 18:46:32;;;;;;;3.40;3.10;;;;;;;20.94;33.90;99825.37;1900283;75;28228;-62
2021/12/22 18:49:21;;;;;;;3.22;2.90;;;;;;;20.96;33.94;99816.43;1896037;75;28190;-62
2021/12/22 18:52:10;;;;;;;3.02;2.83;;;;;;;21.00;33.92;99810.87;1887912;75;28210;-61
2021/12/22 18:54:58;;;;;;;3.00;2.80;;;;;;;21.02;34.00;99815.58;1883369;75;32056;-62
2021/12/22 18:57:46;;;;;;;3.05;2.85;;;;;;;21.03;34.08;99825.44;1892681;75;28193;-61
2021/12/22 19:00:38;;;;;;;3.20;2.90;;;;;;;21.05;34.01;99819.29;1898080;74;30172;-62